Terminal Aerodrome Forecast
Issued by NWS

Home | Current Version | Previous Version | Text Only | Print | Product List | Glossary On
Versions: 1 2 3 4 5 6 7 8 9 10 11 12 13 14
000
FTUS43 KIND 291130
TAFBMG
TAF
KBMG 291130Z 2912/3012 17005KT P6SM FEW050 SCT100 BKN250
     FM291600 20007KT P6SM BKN050
     FM292300 19003KT P6SM VCSH BKN050 PROB30 3000/3006 5SM -TSRA
      BKN035CB
     FM300600 20002KT 5SM BR VCSH BKN045
      AMD LTD TO CLD VIS AND WIND TIL 291300=

USA.gov is the U.S. government's official web portal to all federal, state and local government web resources and services.